sensor_id;sensor_type;location;lat;lon;timestamp;P1;durP1;ratioP1;P2;durP2;ratioP2
66830;SDS011;53739;44.224;22.528;2023-06-04T00:02:17;16.65;;;11.50;;
66830;SDS011;53739;44.224;22.528;2023-06-04T00:04:43;23.55;;;12.57;;
66830;SDS011;53739;44.224;22.528;2023-06-04T00:07:09;21.15;;;11.50;;
66830;SDS011;53739;44.224;22.528;2023-06-04T00:09:35;23.33;;;12.25;;
66830;SDS011;53739;44.224;22.528;2023-06-04T00:12:01;20.30;;;11.20;;
66830;SDS011;53739;44.224;22.528;2023-06-04T00:14:26;15.90;;;10.23;;
66830;SDS011;53739;44.224;22.528;2023-06-04T00:16:52;17.80;;;10.70;;
66830;SDS011;53739;44.224;22.528;2023-06-04T00:19:18;15.45;;;10.60;;
66830;SDS011;53739;44.224;22.528;2023-06-04T00:21:44;18.42;;;9.98;;
66830;SDS011;53739;44.224;22.528;2023-06-04T00:24:10;21.95;;;10.88;;
66830;SDS011;53739;44.224;22.528;2023-06-04T00:26:37;17.80;;;9.73;;
66830;SDS011;53739;44.224;22.528;2023-06-04T00:29:03;14.18;;;7.78;;
66830;SDS011;53739;44.224;22.528;2023-06-04T00:31:29;16.17;;;8.57;;
66830;SDS011;53739;44.224;22.528;2023-06-04T00:33:54;11.82;;;8.80;;
66830;SDS011;53739;44.224;22.528;2023-06-04T00:36:20;13.18;;;8.00;;
66830;SDS011;53739;44.224;22.528;2023-06-04T00:38:46;17.75;;;7.97;;
66830;SDS011;53739;44.224;22.528;2023-06-04T00:41:12;12.40;;;8.23;;
66830;SDS011;53739;44.224;22.528;2023-06-04T00:43:38;15.50;;;8.27;;
66830;SDS011;53739;44.224;22.528;2023-06-04T00:46:05;15.82;;;8.13;;
66830;SDS011;53739;44.224;22.528;2023-06-04T00:48:31;13.75;;;7.70;;
66830;SDS011;53739;44.224;22.528;2023-06-04T00:50:58;12.13;;;8.38;;
66830;SDS011;53739;44.224;22.528;2023-06-04T00:53:24;20.00;;;9.25;;
66830;SDS011;53739;44.224;22.528;2023-06-04T00:55:51;12.77;;;8.15;;
66830;SDS011;53739;44.224;22.528;2023-06-04T00:58:17;12.73;;;8.55;;
66830;SDS011;53739;44.224;22.528;2023-06-04T01:00:43;11.77;;;8.48;;
66830;SDS011;53739;44.224;22.528;2023-06-04T01:03:17;18.05;;;8.75;;
66830;SDS011;53739;44.224;22.528;2023-06-04T01:05:48;12.52;;;6.93;;
66830;SDS011;53739;44.224;22.528;2023-06-04T01:08:22;12.75;;;8.30;;
66830;SDS011;53739;44.224;22.528;2023-06-04T01:10:52;14.98;;;8.65;;
66830;SDS011;53739;44.224;22.528;2023-06-04T01:13:20;13.27;;;8.10;;
66830;SDS011;53739;44.224;22.528;2023-06-04T01:15:46;17.00;;;8.80;;
66830;SDS011;53739;44.224;22.528;2023-06-04T01:18:12;17.60;;;8.63;;
66830;SDS011;53739;44.224;22.528;2023-06-04T01:20:52;14.40;;;8.35;;
66830;SDS011;53739;44.224;22.528;2023-06-04T01:25:58;13.13;;;8.15;;
66830;SDS011;53739;44.224;22.528;2023-06-04T01:28:29;13.98;;;8.07;;
66830;SDS011;53739;44.224;22.528;2023-06-04T01:30:57;14.82;;;8.90;;
66830;SDS011;53739;44.224;22.528;2023-06-04T01:33:24;15.88;;;9.15;;
66830;SDS011;53739;44.224;22.528;2023-06-04T01:35:51;16.95;;;8.95;;
66830;SDS011;53739;44.224;22.528;2023-06-04T01:38:17;20.98;;;9.57;;
66830;SDS011;53739;44.224;22.528;2023-06-04T01:40:43;14.27;;;9.48;;
66830;SDS011;53739;44.224;22.528;2023-06-04T01:43:09;14.55;;;10.00;;
66830;SDS011;53739;44.224;22.528;2023-06-04T01:45:34;12.50;;;8.65;;
66830;SDS011;53739;44.224;22.528;2023-06-04T01:48:01;15.48;;;9.65;;
66830;SDS011;53739;44.224;22.528;2023-06-04T01:50:28;16.83;;;8.20;;
66830;SDS011;53739;44.224;22.528;2023-06-04T01:52:54;16.00;;;9.77;;
66830;SDS011;53739;44.224;22.528;2023-06-04T01:55:20;18.30;;;9.73;;
66830;SDS011;53739;44.224;22.528;2023-06-04T01:57:46;16.88;;;9.60;;
66830;SDS011;53739;44.224;22.528;2023-06-04T02:00:12;18.40;;;9.98;;
66830;SDS011;53739;44.224;22.528;2023-06-04T02:02:43;26.92;;;11.02;;
66830;SDS011;53739;44.224;22.528;2023-06-04T02:05:11;19.58;;;10.13;;
66830;SDS011;53739;44.224;22.528;2023-06-04T02:07:37;20.40;;;10.48;;
66830;SDS011;53739;44.224;22.528;2023-06-04T02:10:06;17.67;;;10.10;;
66830;SDS011;53739;44.224;22.528;2023-06-04T02:12:35;13.70;;;9.02;;
66830;SDS011;53739;44.224;22.528;2023-06-04T02:15:02;20.98;;;10.07;;
66830;SDS011;53739;44.224;22.528;2023-06-04T02:17:28;15.02;;;8.23;;
66830;SDS011;53739;44.224;22.528;2023-06-04T02:19:57;14.02;;;8.90;;
66830;SDS011;53739;44.224;22.528;2023-06-04T02:22:24;14.20;;;8.27;;
66830;SDS011;53739;44.224;22.528;2023-06-04T02:24:51;10.35;;;8.00;;
66830;SDS011;53739;44.224;22.528;2023-06-04T02:27:17;14.10;;;8.00;;
66830;SDS011;53739;44.224;22.528;2023-06-04T02:29:43;12.15;;;7.38;;
66830;SDS011;53739;44.224;22.528;2023-06-04T02:32:09;10.65;;;8.18;;
66830;SDS011;53739;44.224;22.528;2023-06-04T02:34:35;10.90;;;7.28;;
66830;SDS011;53739;44.224;22.528;2023-06-04T02:37:01;10.15;;;7.35;;
66830;SDS011;53739;44.224;22.528;2023-06-04T02:39:27;16.17;;;8.48;;
66830;SDS011;53739;44.224;22.528;2023-06-04T02:41:53;12.85;;;8.05;;
66830;SDS011;53739;44.224;22.528;2023-06-04T02:44:19;14.45;;;7.85;;
66830;SDS011;53739;44.224;22.528;2023-06-04T02:46:45;17.25;;;7.55;;
66830;SDS011;53739;44.224;22.528;2023-06-04T02:49:11;14.05;;;7.20;;
66830;SDS011;53739;44.224;22.528;2023-06-04T02:51:41;12.60;;;7.05;;
66830;SDS011;53739;44.224;22.528;2023-06-04T02:54:07;12.90;;;6.82;;
66830;SDS011;53739;44.224;22.528;2023-06-04T02:56:34;13.32;;;7.05;;
66830;SDS011;53739;44.224;22.528;2023-06-04T02:59:01;13.70;;;6.25;;
66830;SDS011;53739;44.224;22.528;2023-06-04T03:01:27;16.42;;;6.65;;
66830;SDS011;53739;44.224;22.528;2023-06-04T03:03:53;9.95;;;6.50;;
66830;SDS011;53739;44.224;22.528;2023-06-04T03:06:20;11.07;;;6.93;;
66830;SDS011;53739;44.224;22.528;2023-06-04T03:08:47;11.07;;;6.20;;
66830;SDS011;53739;44.224;22.528;2023-06-04T03:11:15;16.02;;;6.38;;
66830;SDS011;53739;44.224;22.528;2023-06-04T03:13:41;10.40;;;5.93;;
66830;SDS011;53739;44.224;22.528;2023-06-04T03:16:07;10.85;;;6.40;;
66830;SDS011;53739;44.224;22.528;2023-06-04T03:18:36;8.20;;;6.07;;
66830;SDS011;53739;44.224;22.528;2023-06-04T03:21:03;10.80;;;6.63;;
66830;SDS011;53739;44.224;22.528;2023-06-04T03:23:30;13.70;;;7.40;;
66830;SDS011;53739;44.224;22.528;2023-06-04T03:25:56;13.95;;;7.00;;
66830;SDS011;53739;44.224;22.528;2023-06-04T03:28:22;16.52;;;6.45;;
66830;SDS011;53739;44.224;22.528;2023-06-04T03:30:47;16.80;;;6.53;;
66830;SDS011;53739;44.224;22.528;2023-06-04T03:33:13;8.88;;;6.65;;
66830;SDS011;53739;44.224;22.528;2023-06-04T03:35:42;12.32;;;7.28;;
66830;SDS011;53739;44.224;22.528;2023-06-04T03:38:08;9.55;;;7.72;;
66830;SDS011;53739;44.224;22.528;2023-06-04T03:40:34;14.50;;;8.82;;
66830;SDS011;53739;44.224;22.528;2023-06-04T03:42:59;17.63;;;8.20;;
66830;SDS011;53739;44.224;22.528;2023-06-04T03:45:25;12.38;;;8.07;;
66830;SDS011;53739;44.224;22.528;2023-06-04T03:47:51;13.85;;;7.03;;
66830;SDS011;53739;44.224;22.528;2023-06-04T03:50:17;11.10;;;6.30;;
66830;SDS011;53739;44.224;22.528;2023-06-04T03:52:44;11.15;;;6.38;;
66830;SDS011;53739;44.224;22.528;2023-06-04T03:55:09;8.00;;;6.00;;
66830;SDS011;53739;44.224;22.528;2023-06-04T03:57:36;8.35;;;5.35;;
66830;SDS011;53739;44.224;22.528;2023-06-04T04:00:04;10.25;;;5.68;;
66830;SDS011;53739;44.224;22.528;2023-06-04T04:02:31;8.82;;;5.93;;
66830;SDS011;53739;44.224;22.528;2023-06-04T04:04:57;12.00;;;5.32;;
66830;SDS011;53739;44.224;22.528;2023-06-04T04:07:23;10.38;;;5.90;;
66830;SDS011;53739;44.224;22.528;2023-06-04T04:09:49;12.38;;;5.93;;
66830;SDS011;53739;44.224;22.528;2023-06-04T04:12:16;8.77;;;4.70;;
66830;SDS011;53739;44.224;22.528;2023-06-04T04:14:42;10.30;;;4.97;;
66830;SDS011;53739;44.224;22.528;2023-06-04T04:17:08;11.13;;;4.90;;
66830;SDS011;53739;44.224;22.528;2023-06-04T04:19:33;11.52;;;4.65;;
66830;SDS011;53739;44.224;22.528;2023-06-04T04:21:59;7.72;;;3.95;;
66830;SDS011;53739;44.224;22.528;2023-06-04T04:24:26;12.73;;;5.35;;
66830;SDS011;53739;44.224;22.528;2023-06-04T04:26:52;6.15;;;4.43;;
66830;SDS011;53739;44.224;22.528;2023-06-04T04:29:22;11.30;;;5.00;;
66830;SDS011;53739;44.224;22.528;2023-06-04T04:31:53;12.57;;;4.95;;
66830;SDS011;53739;44.224;22.528;2023-06-04T04:34:22;7.57;;;4.95;;
66830;SDS011;53739;44.224;22.528;2023-06-04T04:36:51;8.98;;;4.75;;
66830;SDS011;53739;44.224;22.528;2023-06-04T04:39:24;8.70;;;4.63;;
66830;SDS011;53739;44.224;22.528;2023-06-04T04:41:51;7.50;;;4.40;;
66830;SDS011;53739;44.224;22.528;2023-06-04T04:44:17;11.48;;;5.47;;
66830;SDS011;53739;44.224;22.528;2023-06-04T04:46:43;14.75;;;5.13;;
66830;SDS011;53739;44.224;22.528;2023-06-04T04:49:09;11.85;;;5.00;;
66830;SDS011;53739;44.224;22.528;2023-06-04T04:51:35;13.68;;;5.07;;
66830;SDS011;53739;44.224;22.528;2023-06-04T04:54:01;8.13;;;4.65;;
66830;SDS011;53739;44.224;22.528;2023-06-04T04:56:27;7.07;;;4.40;;
66830;SDS011;53739;44.224;22.528;2023-06-04T04:58:57;10.98;;;4.68;;
66830;SDS011;53739;44.224;22.528;2023-06-04T05:01:23;11.23;;;5.05;;
66830;SDS011;53739;44.224;22.528;2023-06-04T05:03:50;10.00;;;5.00;;
66830;SDS011;53739;44.224;22.528;2023-06-04T05:06:16;8.23;;;5.25;;
66830;SDS011;53739;44.224;22.528;2023-06-04T05:08:42;8.20;;;4.82;;
66830;SDS011;53739;44.224;22.528;2023-06-04T05:11:08;9.35;;;4.53;;
66830;SDS011;53739;44.224;22.528;2023-06-04T05:13:34;7.78;;;4.95;;
66830;SDS011;53739;44.224;22.528;2023-06-04T05:16:01;17.23;;;4.93;;
66830;SDS011;53739;44.224;22.528;2023-06-04T05:18:32;9.57;;;5.15;;
66830;SDS011;53739;44.224;22.528;2023-06-04T05:20:59;11.38;;;4.95;;
66830;SDS011;53739;44.224;22.528;2023-06-04T05:23:28;7.07;;;4.63;;
66830;SDS011;53739;44.224;22.528;2023-06-04T05:25:59;9.93;;;5.47;;
66830;SDS011;53739;44.224;22.528;2023-06-04T05:28:26;10.80;;;5.28;;
66830;SDS011;53739;44.224;22.528;2023-06-04T05:30:52;10.13;;;5.47;;
66830;SDS011;53739;44.224;22.528;2023-06-04T05:33:24;8.40;;;4.80;;
66830;SDS011;53739;44.224;22.528;2023-06-04T05:35:50;8.40;;;5.05;;
66830;SDS011;53739;44.224;22.528;2023-06-04T05:38:19;10.68;;;4.65;;
66830;SDS011;53739;44.224;22.528;2023-06-04T05:40:46;12.88;;;5.50;;
66830;SDS011;53739;44.224;22.528;2023-06-04T05:43:12;9.65;;;5.00;;
66830;SDS011;53739;44.224;22.528;2023-06-04T05:45:38;9.20;;;5.10;;
66830;SDS011;53739;44.224;22.528;2023-06-04T05:48:05;9.20;;;4.95;;
66830;SDS011;53739;44.224;22.528;2023-06-04T05:50:31;9.75;;;6.13;;
66830;SDS011;53739;44.224;22.528;2023-06-04T05:52:57;13.30;;;6.03;;
66830;SDS011;53739;44.224;22.528;2023-06-04T05:55:23;14.50;;;7.25;;
66830;SDS011;53739;44.224;22.528;2023-06-04T05:57:50;14.02;;;6.80;;
66830;SDS011;53739;44.224;22.528;2023-06-04T06:00:18;13.57;;;6.80;;
66830;SDS011;53739;44.224;22.528;2023-06-04T06:02:45;15.25;;;5.40;;
66830;SDS011;53739;44.224;22.528;2023-06-04T06:05:14;7.57;;;5.57;;
66830;SDS011;53739;44.224;22.528;2023-06-04T06:07:40;8.68;;;5.72;;
66830;SDS011;53739;44.224;22.528;2023-06-04T06:10:07;9.82;;;5.10;;
66830;SDS011;53739;44.224;22.528;2023-06-04T06:12:33;9.27;;;4.70;;
66830;SDS011;53739;44.224;22.528;2023-06-04T06:14:59;9.52;;;5.05;;
66830;SDS011;53739;44.224;22.528;2023-06-04T06:17:25;9.05;;;5.75;;
66830;SDS011;53739;44.224;22.528;2023-06-04T06:19:53;6.32;;;4.68;;
66830;SDS011;53739;44.224;22.528;2023-06-04T06:22:20;9.40;;;4.85;;
66830;SDS011;53739;44.224;22.528;2023-06-04T06:24:47;10.77;;;5.65;;
66830;SDS011;53739;44.224;22.528;2023-06-04T06:27:16;9.38;;;6.03;;
66830;SDS011;53739;44.224;22.528;2023-06-04T06:29:42;10.95;;;6.07;;
66830;SDS011;53739;44.224;22.528;2023-06-04T06:32:09;15.35;;;7.07;;
66830;SDS011;53739;44.224;22.528;2023-06-04T06:34:35;10.43;;;6.65;;
66830;SDS011;53739;44.224;22.528;2023-06-04T06:37:02;10.93;;;5.97;;
66830;SDS011;53739;44.224;22.528;2023-06-04T06:39:28;12.90;;;5.45;;
66830;SDS011;53739;44.224;22.528;2023-06-04T06:41:54;9.32;;;5.45;;
66830;SDS011;53739;44.224;22.528;2023-06-04T06:44:20;11.68;;;5.30;;
66830;SDS011;53739;44.224;22.528;2023-06-04T06:46:45;11.05;;;5.97;;
66830;SDS011;53739;44.224;22.528;2023-06-04T06:49:13;11.25;;;4.97;;
66830;SDS011;53739;44.224;22.528;2023-06-04T06:51:40;11.95;;;4.97;;
66830;SDS011;53739;44.224;22.528;2023-06-04T06:54:08;8.68;;;5.43;;
66830;SDS011;53739;44.224;22.528;2023-06-04T06:56:34;8.35;;;5.40;;
66830;SDS011;53739;44.224;22.528;2023-06-04T06:59:00;7.88;;;5.43;;
66830;SDS011;53739;44.224;22.528;2023-06-04T07:01:25;11.35;;;6.15;;
66830;SDS011;53739;44.224;22.528;2023-06-04T07:03:51;12.48;;;6.82;;
66830;SDS011;53739;44.224;22.528;2023-06-04T07:06:17;10.13;;;6.35;;
66830;SDS011;53739;44.224;22.528;2023-06-04T07:08:43;14.98;;;6.68;;
66830;SDS011;53739;44.224;22.528;2023-06-04T07:11:09;8.48;;;5.43;;
66830;SDS011;53739;44.224;22.528;2023-06-04T07:13:38;11.55;;;5.45;;
66830;SDS011;53739;44.224;22.528;2023-06-04T07:16:04;7.43;;;4.13;;
66830;SDS011;53739;44.224;22.528;2023-06-04T07:18:30;7.70;;;5.10;;
66830;SDS011;53739;44.224;22.528;2023-06-04T07:20:57;8.80;;;5.85;;
66830;SDS011;53739;44.224;22.528;2023-06-04T07:23:23;8.98;;;5.80;;
66830;SDS011;53739;44.224;22.528;2023-06-04T07:25:49;7.22;;;4.72;;
66830;SDS011;53739;44.224;22.528;2023-06-04T07:28:15;14.82;;;5.65;;
66830;SDS011;53739;44.224;22.528;2023-06-04T07:30:41;6.65;;;4.65;;
66830;SDS011;53739;44.224;22.528;2023-06-04T07:33:06;13.65;;;5.35;;
66830;SDS011;53739;44.224;22.528;2023-06-04T07:35:32;9.35;;;4.72;;
66830;SDS011;53739;44.224;22.528;2023-06-04T07:37:58;9.10;;;5.13;;
66830;SDS011;53739;44.224;22.528;2023-06-04T07:40:24;9.07;;;5.55;;
66830;SDS011;53739;44.224;22.528;2023-06-04T07:42:49;8.80;;;5.28;;
66830;SDS011;53739;44.224;22.528;2023-06-04T07:45:15;11.70;;;7.18;;
66830;SDS011;53739;44.224;22.528;2023-06-04T07:47:42;8.52;;;4.53;;
66830;SDS011;53739;44.224;22.528;2023-06-04T07:50:08;7.03;;;4.60;;
66830;SDS011;53739;44.224;22.528;2023-06-04T07:52:34;7.55;;;4.30;;
66830;SDS011;53739;44.224;22.528;2023-06-04T07:55:00;5.93;;;4.00;;
66830;SDS011;53739;44.224;22.528;2023-06-04T07:57:26;8.23;;;4.10;;
66830;SDS011;53739;44.224;22.528;2023-06-04T07:59:52;11.27;;;5.00;;
66830;SDS011;53739;44.224;22.528;2023-06-04T08:02:18;10.90;;;4.93;;
66830;SDS011;53739;44.224;22.528;2023-06-04T08:04:44;6.97;;;4.30;;
66830;SDS011;53739;44.224;22.528;2023-06-04T08:07:11;7.03;;;4.13;;
66830;SDS011;53739;44.224;22.528;2023-06-04T08:09:37;7.43;;;3.70;;
66830;SDS011;53739;44.224;22.528;2023-06-04T08:12:03;7.20;;;3.92;;
66830;SDS011;53739;44.224;22.528;2023-06-04T08:14:29;6.40;;;4.13;;
66830;SDS011;53739;44.224;22.528;2023-06-04T08:16:57;6.78;;;3.70;;
66830;SDS011;53739;44.224;22.528;2023-06-04T08:19:23;7.72;;;3.10;;
66830;SDS011;53739;44.224;22.528;2023-06-04T08:21:49;7.68;;;3.90;;
66830;SDS011;53739;44.224;22.528;2023-06-04T08:24:15;8.07;;;4.07;;
66830;SDS011;53739;44.224;22.528;2023-06-04T08:26:41;6.97;;;3.95;;
66830;SDS011;53739;44.224;22.528;2023-06-04T08:29:07;4.80;;;3.72;;
66830;SDS011;53739;44.224;22.528;2023-06-04T08:31:33;5.13;;;3.40;;
66830;SDS011;53739;44.224;22.528;2023-06-04T08:33:59;9.10;;;3.70;;
66830;SDS011;53739;44.224;22.528;2023-06-04T08:36:26;6.10;;;4.53;;
66830;SDS011;53739;44.224;22.528;2023-06-04T08:38:52;5.68;;;3.47;;
66830;SDS011;53739;44.224;22.528;2023-06-04T08:43:49;8.00;;;3.72;;
66830;SDS011;53739;44.224;22.528;2023-06-04T08:46:16;5.45;;;3.63;;
66830;SDS011;53739;44.224;22.528;2023-06-04T08:48:44;6.80;;;3.83;;
66830;SDS011;53739;44.224;22.528;2023-06-04T08:51:10;6.10;;;4.13;;
66830;SDS011;53739;44.224;22.528;2023-06-04T08:53:36;11.80;;;3.58;;
66830;SDS011;53739;44.224;22.528;2023-06-04T08:56:03;9.75;;;4.30;;
66830;SDS011;53739;44.224;22.528;2023-06-04T08:58:32;4.90;;;3.20;;
66830;SDS011;53739;44.224;22.528;2023-06-04T09:00:59;7.63;;;3.05;;
66830;SDS011;53739;44.224;22.528;2023-06-04T09:03:25;5.88;;;3.15;;
66830;SDS011;53739;44.224;22.528;2023-06-04T09:05:51;7.60;;;4.10;;
66830;SDS011;53739;44.224;22.528;2023-06-04T09:08:18;6.85;;;3.50;;
66830;SDS011;53739;44.224;22.528;2023-06-04T09:10:46;6.72;;;4.30;;
66830;SDS011;53739;44.224;22.528;2023-06-04T09:13:17;10.27;;;4.97;;
66830;SDS011;53739;44.224;22.528;2023-06-04T09:15:44;8.82;;;4.40;;
66830;SDS011;53739;44.224;22.528;2023-06-04T09:18:11;6.82;;;4.30;;
66830;SDS011;53739;44.224;22.528;2023-06-04T09:20:37;7.93;;;3.97;;
66830;SDS011;53739;44.224;22.528;2023-06-04T09:23:12;5.22;;;3.60;;
66830;SDS011;53739;44.224;22.528;2023-06-04T09:25:42;6.53;;;3.55;;
66830;SDS011;53739;44.224;22.528;2023-06-04T09:28:08;9.98;;;5.03;;
66830;SDS011;53739;44.224;22.528;2023-06-04T09:30:34;7.13;;;4.45;;
66830;SDS011;53739;44.224;22.528;2023-06-04T09:33:07;10.48;;;4.30;;
66830;SDS011;53739;44.224;22.528;2023-06-04T09:37:59;8.18;;;4.05;;
66830;SDS011;53739;44.224;22.528;2023-06-04T09:40:34;9.05;;;4.22;;
66830;SDS011;53739;44.224;22.528;2023-06-04T09:43:01;13.15;;;4.93;;
66830;SDS011;53739;44.224;22.528;2023-06-04T09:45:28;5.25;;;3.60;;
66830;SDS011;53739;44.224;22.528;2023-06-04T09:47:59;8.75;;;4.82;;
66830;SDS011;53739;44.224;22.528;2023-06-04T09:50:33;7.95;;;4.70;;
66830;SDS011;53739;44.224;22.528;2023-06-04T09:52:59;7.57;;;4.80;;
66830;SDS011;53739;44.224;22.528;2023-06-04T09:55:27;8.57;;;5.65;;
66830;SDS011;53739;44.224;22.528;2023-06-04T09:57:53;6.60;;;4.28;;
66830;SDS011;53739;44.224;22.528;2023-06-04T10:00:20;7.30;;;4.30;;
66830;SDS011;53739;44.224;22.528;2023-06-04T10:02:48;9.13;;;4.18;;
66830;SDS011;53739;44.224;22.528;2023-06-04T10:05:14;10.32;;;5.18;;
66830;SDS011;53739;44.224;22.528;2023-06-04T10:07:44;7.65;;;4.30;;
66830;SDS011;53739;44.224;22.528;2023-06-04T10:10:11;7.18;;;3.58;;
66830;SDS011;53739;44.224;22.528;2023-06-04T10:12:41;6.75;;;4.53;;
66830;SDS011;53739;44.224;22.528;2023-06-04T10:15:12;7.90;;;4.47;;
66830;SDS011;53739;44.224;22.528;2023-06-04T10:17:39;13.15;;;4.47;;
66830;SDS011;53739;44.224;22.528;2023-06-04T10:20:09;6.38;;;4.30;;
66830;SDS011;53739;44.224;22.528;2023-06-04T10:22:37;6.30;;;3.47;;
66830;SDS011;53739;44.224;22.528;2023-06-04T10:25:03;10.68;;;4.30;;
66830;SDS011;53739;44.224;22.528;2023-06-04T10:27:30;6.53;;;3.70;;
66830;SDS011;53739;44.224;22.528;2023-06-04T10:29:57;9.02;;;3.70;;
66830;SDS011;53739;44.224;22.528;2023-06-04T10:32:26;5.90;;;3.60;;
66830;SDS011;53739;44.224;22.528;2023-06-04T10:34:56;8.68;;;3.67;;
66830;SDS011;53739;44.224;22.528;2023-06-04T10:37:26;7.68;;;3.55;;
66830;SDS011;53739;44.224;22.528;2023-06-04T10:39:55;11.75;;;5.35;;
66830;SDS011;53739;44.224;22.528;2023-06-04T10:42:22;9.88;;;4.40;;
66830;SDS011;53739;44.224;22.528;2023-06-04T10:44:50;7.85;;;4.70;;
66830;SDS011;53739;44.224;22.528;2023-06-04T10:47:26;9.65;;;5.32;;
66830;SDS011;53739;44.224;22.528;2023-06-04T10:50:05;7.43;;;4.50;;
66830;SDS011;53739;44.224;22.528;2023-06-04T10:52:39;8.73;;;4.90;;
66830;SDS011;53739;44.224;22.528;2023-06-04T10:55:20;6.43;;;4.18;;
66830;SDS011;53739;44.224;22.528;2023-06-04T11:00:22;5.55;;;3.72;;
66830;SDS011;53739;44.224;22.528;2023-06-04T11:02:59;6.65;;;4.55;;
66830;SDS011;53739;44.224;22.528;2023-06-04T11:05:35;11.13;;;4.13;;
66830;SDS011;53739;44.224;22.528;2023-06-04T11:08:05;8.18;;;4.43;;
66830;SDS011;53739;44.224;22.528;2023-06-04T11:10:32;8.93;;;3.33;;
66830;SDS011;53739;44.224;22.528;2023-06-04T11:13:11;10.40;;;3.88;;
66830;SDS011;53739;44.224;22.528;2023-06-04T11:15:38;11.10;;;3.67;;
66830;SDS011;53739;44.224;22.528;2023-06-04T11:18:04;5.25;;;3.00;;
66830;SDS011;53739;44.224;22.528;2023-06-04T11:20:30;6.43;;;2.95;;
66830;SDS011;53739;44.224;22.528;2023-06-04T11:22:56;5.45;;;3.20;;
66830;SDS011;53739;44.224;22.528;2023-06-04T11:25:24;6.13;;;3.53;;
66830;SDS011;53739;44.224;22.528;2023-06-04T11:27:52;7.47;;;4.10;;
66830;SDS011;53739;44.224;22.528;2023-06-04T11:30:18;8.35;;;3.58;;
66830;SDS011;53739;44.224;22.528;2023-06-04T11:32:45;6.78;;;3.47;;
66830;SDS011;53739;44.224;22.528;2023-06-04T11:35:11;8.40;;;3.65;;
66830;SDS011;53739;44.224;22.528;2023-06-04T11:37:37;7.15;;;3.30;;
66830;SDS011;53739;44.224;22.528;2023-06-04T11:40:25;7.95;;;3.67;;
66830;SDS011;53739;44.224;22.528;2023-06-04T11:42:52;5.68;;;3.40;;
66830;SDS011;53739;44.224;22.528;2023-06-04T11:45:19;7.40;;;3.70;;
66830;SDS011;53739;44.224;22.528;2023-06-04T11:47:48;7.13;;;4.00;;
66830;SDS011;53739;44.224;22.528;2023-06-04T11:52:47;4.82;;;3.28;;
66830;SDS011;53739;44.224;22.528;2023-06-04T11:55:17;6.20;;;3.40;;
66830;SDS011;53739;44.224;22.528;2023-06-04T11:57:54;6.18;;;3.80;;
66830;SDS011;53739;44.224;22.528;2023-06-04T12:00:24;10.88;;;4.63;;
66830;SDS011;53739;44.224;22.528;2023-06-04T12:02:56;13.77;;;5.15;;
66830;SDS011;53739;44.224;22.528;2023-06-04T12:05:28;5.75;;;3.67;;
66830;SDS011;53739;44.224;22.528;2023-06-04T12:08:07;8.57;;;4.80;;
66830;SDS011;53739;44.224;22.528;2023-06-04T12:10:39;8.07;;;4.40;;
66830;SDS011;53739;44.224;22.528;2023-06-04T12:13:06;7.72;;;4.22;;
66830;SDS011;53739;44.224;22.528;2023-06-04T12:15:32;8.68;;;3.53;;
66830;SDS011;53739;44.224;22.528;2023-06-04T12:17:58;9.68;;;4.68;;
66830;SDS011;53739;44.224;22.528;2023-06-04T12:20:37;5.47;;;3.58;;
66830;SDS011;53739;44.224;22.528;2023-06-04T12:23:04;9.48;;;5.20;;
66830;SDS011;53739;44.224;22.528;2023-06-04T12:25:31;12.68;;;5.40;;
66830;SDS011;53739;44.224;22.528;2023-06-04T12:27:58;7.82;;;4.53;;
66830;SDS011;53739;44.224;22.528;2023-06-04T12:30:34;8.98;;;4.85;;
66830;SDS011;53739;44.224;22.528;2023-06-04T12:33:03;11.00;;;6.38;;
66830;SDS011;53739;44.224;22.528;2023-06-04T12:35:28;5.88;;;4.28;;
66830;SDS011;53739;44.224;22.528;2023-06-04T12:37:54;5.25;;;3.40;;
66830;SDS011;53739;44.224;22.528;2023-06-04T12:40:20;6.70;;;3.38;;
66830;SDS011;53739;44.224;22.528;2023-06-04T12:42:49;6.82;;;3.80;;
66830;SDS011;53739;44.224;22.528;2023-06-04T12:45:15;5.75;;;3.90;;
66830;SDS011;53739;44.224;22.528;2023-06-04T12:47:42;6.22;;;3.67;;
66830;SDS011;53739;44.224;22.528;2023-06-04T12:50:08;7.13;;;3.20;;
66830;SDS011;53739;44.224;22.528;2023-06-04T12:52:35;5.15;;;3.00;;
66830;SDS011;53739;44.224;22.528;2023-06-04T12:55:01;5.93;;;3.33;;
66830;SDS011;53739;44.224;22.528;2023-06-04T12:57:27;5.60;;;3.60;;
66830;SDS011;53739;44.224;22.528;2023-06-04T12:59:52;6.57;;;3.95;;
66830;SDS011;53739;44.224;22.528;2023-06-04T13:02:18;7.53;;;3.97;;
66830;SDS011;53739;44.224;22.528;2023-06-04T13:04:44;11.55;;;4.63;;
66830;SDS011;53739;44.224;22.528;2023-06-04T13:07:11;6.30;;;3.13;;
66830;SDS011;53739;44.224;22.528;2023-06-04T13:09:37;7.72;;;4.10;;
66830;SDS011;53739;44.224;22.528;2023-06-04T13:12:03;11.95;;;5.28;;
66830;SDS011;53739;44.224;22.528;2023-06-04T13:14:31;9.05;;;6.68;;
66830;SDS011;53739;44.224;22.528;2023-06-04T13:16:58;7.68;;;5.07;;
66830;SDS011;53739;44.224;22.528;2023-06-04T13:19:25;5.80;;;3.85;;
66830;SDS011;53739;44.224;22.528;2023-06-04T13:21:51;6.43;;;3.33;;
66830;SDS011;53739;44.224;22.528;2023-06-04T13:24:16;6.60;;;3.42;;
66830;SDS011;53739;44.224;22.528;2023-06-04T13:26:42;7.25;;;3.90;;
66830;SDS011;53739;44.224;22.528;2023-06-04T13:29:08;6.40;;;3.50;;
66830;SDS011;53739;44.224;22.528;2023-06-04T13:31:34;7.63;;;4.03;;
66830;SDS011;53739;44.224;22.528;2023-06-04T13:34:00;5.07;;;3.30;;
66830;SDS011;53739;44.224;22.528;2023-06-04T13:36:26;9.80;;;3.03;;
66830;SDS011;53739;44.224;22.528;2023-06-04T13:38:53;13.20;;;4.50;;
66830;SDS011;53739;44.224;22.528;2023-06-04T13:41:20;8.05;;;4.53;;
66830;SDS011;53739;44.224;22.528;2023-06-04T13:43:46;7.82;;;3.33;;
66830;SDS011;53739;44.224;22.528;2023-06-04T13:46:12;6.88;;;3.80;;
66830;SDS011;53739;44.224;22.528;2023-06-04T13:48:37;7.78;;;4.13;;
66830;SDS011;53739;44.224;22.528;2023-06-04T13:51:09;5.82;;;3.65;;
66830;SDS011;53739;44.224;22.528;2023-06-04T13:53:35;9.13;;;4.10;;
66830;SDS011;53739;44.224;22.528;2023-06-04T13:56:01;10.20;;;4.60;;
66830;SDS011;53739;44.224;22.528;2023-06-04T13:58:26;9.88;;;4.38;;
66830;SDS011;53739;44.224;22.528;2023-06-04T14:00:53;8.00;;;4.53;;
66830;SDS011;53739;44.224;22.528;2023-06-04T14:03:19;7.95;;;5.53;;
66830;SDS011;53739;44.224;22.528;2023-06-04T14:05:45;8.85;;;5.00;;
66830;SDS011;53739;44.224;22.528;2023-06-04T14:08:10;12.38;;;4.25;;
66830;SDS011;53739;44.224;22.528;2023-06-04T14:10:37;8.35;;;4.10;;
66830;SDS011;53739;44.224;22.528;2023-06-04T14:13:06;7.30;;;4.05;;
66830;SDS011;53739;44.224;22.528;2023-06-04T14:15:33;9.18;;;4.57;;
66830;SDS011;53739;44.224;22.528;2023-06-04T14:17:59;7.38;;;4.97;;
66830;SDS011;53739;44.224;22.528;2023-06-04T14:20:26;8.60;;;5.05;;
66830;SDS011;53739;44.224;22.528;2023-06-04T14:22:51;9.73;;;5.95;;
66830;SDS011;53739;44.224;22.528;2023-06-04T14:25:17;26.67;;;19.17;;
66830;SDS011;53739;44.224;22.528;2023-06-04T14:27:43;16.02;;;10.00;;
66830;SDS011;53739;44.224;22.528;2023-06-04T14:30:09;13.10;;;7.15;;
66830;SDS011;53739;44.224;22.528;2023-06-04T14:32:35;10.25;;;7.13;;
66830;SDS011;53739;44.224;22.528;2023-06-04T14:35:03;15.50;;;6.80;;
66830;SDS011;53739;44.224;22.528;2023-06-04T14:37:30;11.68;;;6.78;;
66830;SDS011;53739;44.224;22.528;2023-06-04T14:39:56;10.00;;;5.55;;
66830;SDS011;53739;44.224;22.528;2023-06-04T14:42:21;10.00;;;6.50;;